メインページ
METAR-TAF:

METAR-TAF

空港 :

熊本空港

熊本, 日本

緯度: 32-50N, 経度: 130-51E, 海抜: 193m

現時点の気象観測

当レポートは17分前の23:00(UTC)に作成
東/北東の風 7kt
気温 11°C
湿度 100%
気圧 1019 hPa
視程10km以上
高度200ftの雲はほとんどない

METAR: RJFT 162300Z 06007KT 9999 FEW002 11/11 Q1019

時間: 08:17 (23:17 UTC)

予報

当レポートは3時間14分前の20:03(UTC)に作成
予報は16日の 20時(UTC)から 18日の 00時(UTC)まで有効
北/北東の風 6kt
視程10km以上
高度3000ftの雲はほとんどない
16日の 20時(UTC)から 16日の 22時(UTC)まで一時的に
視程: 0200m
高度200ftの
16日の 22時(UTC)から 17日の 00時(UTC)まで一時的に
視程: 4000m
17日の 02時(UTC)から 17日の 04時(UTC)まで徐々に
北西の風 5kt
17日の 09時(UTC)から 17日の 12時(UTC)まで徐々に
東/北東の風 6kt

TAF: RJFT 162003Z 1620/1800 03006KT 9999 FEW030 TEMPO 1620/1622 0200 FG VV002 TEMPO 1622/1700 4000 BR BECMG 1702/1704 31005KT BECMG 1709/1712 06006KT

4,000以上の空港の気象観測と天気予報(METAR報とTAF報)

利用可能な観測所は地図上に黄色い丸と赤い丸で示す。

丸の上にカーソルを重ねると観測所名を参照できる。

次にクリックすると気象観測と天気予報を参照できる。

マップの切り替え:黒色「×」印の緑ボタンをクリックして拡大、「-」印の緑ボタンをクリックして縮小、緑色の三角印をクリックして隣りの地図に切り替え


METAR-TAF: